sensor_id;sensor_type;location;lat;lon;timestamp;P1;durP1;ratioP1;P2;durP2;ratioP2
15354;SDS011;7777;52.254;9.618;2022-12-11T00:02:18;38.90;;;22.27;;
15354;SDS011;7777;52.254;9.618;2022-12-11T00:04:44;38.33;;;21.73;;
15354;SDS011;7777;52.254;9.618;2022-12-11T00:07:10;39.73;;;22.13;;
15354;SDS011;7777;52.254;9.618;2022-12-11T00:09:35;38.80;;;20.93;;
15354;SDS011;7777;52.254;9.618;2022-12-11T00:12:01;35.30;;;20.40;;
15354;SDS011;7777;52.254;9.618;2022-12-11T00:14:29;38.00;;;21.70;;
15354;SDS011;7777;52.254;9.618;2022-12-11T00:16:55;41.70;;;23.23;;
15354;SDS011;7777;52.254;9.618;2022-12-11T00:19:21;36.33;;;21.20;;
15354;SDS011;7777;52.254;9.618;2022-12-11T00:21:47;35.73;;;22.63;;
15354;SDS011;7777;52.254;9.618;2022-12-11T00:24:13;38.27;;;21.70;;
15354;SDS011;7777;52.254;9.618;2022-12-11T00:26:39;34.90;;;20.20;;
15354;SDS011;7777;52.254;9.618;2022-12-11T00:29:05;40.40;;;21.47;;
15354;SDS011;7777;52.254;9.618;2022-12-11T00:31:33;38.27;;;23.13;;
15354;SDS011;7777;52.254;9.618;2022-12-11T00:34:00;38.67;;;22.00;;
15354;SDS011;7777;52.254;9.618;2022-12-11T00:36:26;41.10;;;23.27;;
15354;SDS011;7777;52.254;9.618;2022-12-11T00:38:52;36.60;;;21.27;;
15354;SDS011;7777;52.254;9.618;2022-12-11T00:41:18;38.27;;;22.70;;
15354;SDS011;7777;52.254;9.618;2022-12-11T00:43:45;37.60;;;21.43;;
15354;SDS011;7777;52.254;9.618;2022-12-11T00:46:11;37.63;;;22.37;;
15354;SDS011;7777;52.254;9.618;2022-12-11T00:48:37;38.90;;;22.07;;
15354;SDS011;7777;52.254;9.618;2022-12-11T00:51:04;37.83;;;22.10;;
15354;SDS011;7777;52.254;9.618;2022-12-11T00:53:30;39.27;;;22.37;;
15354;SDS011;7777;52.254;9.618;2022-12-11T00:55:55;39.43;;;22.73;;
15354;SDS011;7777;52.254;9.618;2022-12-11T00:58:21;39.33;;;21.90;;
15354;SDS011;7777;52.254;9.618;2022-12-11T01:00:47;36.30;;;21.37;;
15354;SDS011;7777;52.254;9.618;2022-12-11T01:03:14;34.93;;;21.67;;
15354;SDS011;7777;52.254;9.618;2022-12-11T01:05:40;38.37;;;23.00;;
15354;SDS011;7777;52.254;9.618;2022-12-11T01:08:18;43.23;;;22.87;;
15354;SDS011;7777;52.254;9.618;2022-12-11T01:10:43;40.77;;;23.47;;
15354;SDS011;7777;52.254;9.618;2022-12-11T01:13:09;35.03;;;21.20;;
15354;SDS011;7777;52.254;9.618;2022-12-11T01:15:40;37.23;;;21.07;;
15354;SDS011;7777;52.254;9.618;2022-12-11T01:18:09;36.57;;;21.50;;
15354;SDS011;7777;52.254;9.618;2022-12-11T01:20:37;38.17;;;21.43;;
15354;SDS011;7777;52.254;9.618;2022-12-11T01:23:04;40.53;;;22.57;;
15354;SDS011;7777;52.254;9.618;2022-12-11T01:25:30;42.50;;;23.33;;
15354;SDS011;7777;52.254;9.618;2022-12-11T01:27:57;43.67;;;22.93;;
15354;SDS011;7777;52.254;9.618;2022-12-11T01:30:23;46.37;;;23.83;;
15354;SDS011;7777;52.254;9.618;2022-12-11T01:32:50;38.03;;;21.60;;
15354;SDS011;7777;52.254;9.618;2022-12-11T01:35:16;40.03;;;23.10;;
15354;SDS011;7777;52.254;9.618;2022-12-11T01:37:43;40.87;;;21.87;;
15354;SDS011;7777;52.254;9.618;2022-12-11T01:40:11;39.67;;;22.63;;
15354;SDS011;7777;52.254;9.618;2022-12-11T01:42:40;36.73;;;21.17;;
15354;SDS011;7777;52.254;9.618;2022-12-11T01:45:22;38.07;;;22.27;;
15354;SDS011;7777;52.254;9.618;2022-12-11T01:47:51;38.67;;;22.20;;
15354;SDS011;7777;52.254;9.618;2022-12-11T01:50:31;38.07;;;21.63;;
15354;SDS011;7777;52.254;9.618;2022-12-11T01:53:01;41.30;;;23.67;;
15354;SDS011;7777;52.254;9.618;2022-12-11T01:55:32;40.27;;;21.77;;
15354;SDS011;7777;52.254;9.618;2022-12-11T01:57:58;39.13;;;21.90;;
15354;SDS011;7777;52.254;9.618;2022-12-11T02:00:27;36.63;;;21.73;;
15354;SDS011;7777;52.254;9.618;2022-12-11T02:02:53;41.57;;;21.90;;
15354;SDS011;7777;52.254;9.618;2022-12-11T02:05:18;39.10;;;21.73;;
15354;SDS011;7777;52.254;9.618;2022-12-11T02:07:45;40.37;;;23.30;;
15354;SDS011;7777;52.254;9.618;2022-12-11T02:10:16;42.00;;;22.57;;
15354;SDS011;7777;52.254;9.618;2022-12-11T02:12:45;44.00;;;23.57;;
15354;SDS011;7777;52.254;9.618;2022-12-11T02:15:36;40.40;;;22.33;;
15354;SDS011;7777;52.254;9.618;2022-12-11T02:18:29;43.97;;;22.00;;
15354;SDS011;7777;52.254;9.618;2022-12-11T02:21:47;38.30;;;20.23;;
15354;SDS011;7777;52.254;9.618;2022-12-11T02:30:23;36.77;;;20.83;;
15354;SDS011;7777;52.254;9.618;2022-12-11T02:32:53;36.47;;;20.70;;
15354;SDS011;7777;52.254;9.618;2022-12-11T02:35:33;34.67;;;20.60;;
15354;SDS011;7777;52.254;9.618;2022-12-11T02:38:11;36.07;;;19.97;;
15354;SDS011;7777;52.254;9.618;2022-12-11T02:40:42;34.37;;;20.23;;
15354;SDS011;7777;52.254;9.618;2022-12-11T02:43:09;35.03;;;19.97;;
15354;SDS011;7777;52.254;9.618;2022-12-11T02:45:37;35.00;;;20.30;;
15354;SDS011;7777;52.254;9.618;2022-12-11T02:48:05;35.30;;;18.93;;
15354;SDS011;7777;52.254;9.618;2022-12-11T02:50:34;35.40;;;21.23;;
15354;SDS011;7777;52.254;9.618;2022-12-11T02:53:03;32.13;;;19.53;;
15354;SDS011;7777;52.254;9.618;2022-12-11T02:55:31;31.77;;;18.97;;
15354;SDS011;7777;52.254;9.618;2022-12-11T03:00:48;33.63;;;20.20;;
15354;SDS011;7777;52.254;9.618;2022-12-11T03:03:14;34.63;;;20.50;;
15354;SDS011;7777;52.254;9.618;2022-12-11T03:05:40;32.63;;;19.10;;
15354;SDS011;7777;52.254;9.618;2022-12-11T03:08:07;34.23;;;18.67;;
15354;SDS011;7777;52.254;9.618;2022-12-11T03:10:32;35.60;;;20.17;;
15354;SDS011;7777;52.254;9.618;2022-12-11T03:12:58;32.77;;;20.00;;
15354;SDS011;7777;52.254;9.618;2022-12-11T03:16:14;34.83;;;20.37;;
15354;SDS011;7777;52.254;9.618;2022-12-11T03:21:43;31.13;;;19.27;;
15354;SDS011;7777;52.254;9.618;2022-12-11T03:24:38;33.23;;;18.27;;
15354;SDS011;7777;52.254;9.618;2022-12-11T03:30:12;34.70;;;20.70;;
15354;SDS011;7777;52.254;9.618;2022-12-11T03:33:04;35.13;;;20.37;;
15354;SDS011;7777;52.254;9.618;2022-12-11T03:38:07;32.20;;;19.13;;
15354;SDS011;7777;52.254;9.618;2022-12-11T03:40:42;35.03;;;20.17;;
15354;SDS011;7777;52.254;9.618;2022-12-11T03:43:13;33.60;;;19.77;;
15354;SDS011;7777;52.254;9.618;2022-12-11T03:45:40;33.17;;;19.10;;
15354;SDS011;7777;52.254;9.618;2022-12-11T03:48:07;36.27;;;19.70;;
15354;SDS011;7777;52.254;9.618;2022-12-11T03:50:34;35.47;;;19.13;;
15354;SDS011;7777;52.254;9.618;2022-12-11T03:53:01;34.13;;;19.40;;
15354;SDS011;7777;52.254;9.618;2022-12-11T03:55:28;32.33;;;19.43;;
15354;SDS011;7777;52.254;9.618;2022-12-11T03:57:57;33.60;;;18.93;;
15354;SDS011;7777;52.254;9.618;2022-12-11T04:00:23;30.17;;;18.40;;
15354;SDS011;7777;52.254;9.618;2022-12-11T04:02:48;31.63;;;19.17;;
15354;SDS011;7777;52.254;9.618;2022-12-11T04:05:33;30.13;;;18.37;;
15354;SDS011;7777;52.254;9.618;2022-12-11T04:07:59;31.43;;;19.03;;
15354;SDS011;7777;52.254;9.618;2022-12-11T04:10:25;32.10;;;18.90;;
15354;SDS011;7777;52.254;9.618;2022-12-11T04:12:51;32.17;;;18.80;;
15354;SDS011;7777;52.254;9.618;2022-12-11T04:15:17;32.57;;;20.07;;
15354;SDS011;7777;52.254;9.618;2022-12-11T04:17:43;32.40;;;19.60;;
15354;SDS011;7777;52.254;9.618;2022-12-11T04:20:27;35.90;;;20.23;;
15354;SDS011;7777;52.254;9.618;2022-12-11T04:23:13;33.73;;;20.00;;
15354;SDS011;7777;52.254;9.618;2022-12-11T04:26:14;34.70;;;19.60;;
15354;SDS011;7777;52.254;9.618;2022-12-11T04:28:43;30.17;;;18.60;;
15354;SDS011;7777;52.254;9.618;2022-12-11T04:31:12;31.77;;;20.07;;
15354;SDS011;7777;52.254;9.618;2022-12-11T04:33:40;32.23;;;19.70;;
15354;SDS011;7777;52.254;9.618;2022-12-11T04:36:06;32.97;;;20.53;;
15354;SDS011;7777;52.254;9.618;2022-12-11T04:38:34;30.97;;;19.87;;
15354;SDS011;7777;52.254;9.618;2022-12-11T04:41:01;32.27;;;19.70;;
15354;SDS011;7777;52.254;9.618;2022-12-11T04:43:34;29.10;;;18.47;;
15354;SDS011;7777;52.254;9.618;2022-12-11T04:46:07;33.93;;;21.50;;
15354;SDS011;7777;52.254;9.618;2022-12-11T04:48:39;29.77;;;18.57;;
15354;SDS011;7777;52.254;9.618;2022-12-11T04:51:05;31.13;;;19.93;;
15354;SDS011;7777;52.254;9.618;2022-12-11T04:53:32;33.70;;;19.97;;
15354;SDS011;7777;52.254;9.618;2022-12-11T04:55:58;32.57;;;19.40;;
15354;SDS011;7777;52.254;9.618;2022-12-11T04:58:26;32.63;;;19.13;;
15354;SDS011;7777;52.254;9.618;2022-12-11T05:00:51;33.00;;;20.80;;
15354;SDS011;7777;52.254;9.618;2022-12-11T05:03:18;36.90;;;21.90;;
15354;SDS011;7777;52.254;9.618;2022-12-11T05:05:51;34.53;;;19.40;;
15354;SDS011;7777;52.254;9.618;2022-12-11T05:08:18;31.30;;;19.20;;
15354;SDS011;7777;52.254;9.618;2022-12-11T05:10:58;31.93;;;19.47;;
15354;SDS011;7777;52.254;9.618;2022-12-11T05:13:31;32.27;;;19.03;;
15354;SDS011;7777;52.254;9.618;2022-12-11T05:15:57;34.63;;;20.43;;
15354;SDS011;7777;52.254;9.618;2022-12-11T05:18:23;33.13;;;20.17;;
15354;SDS011;7777;52.254;9.618;2022-12-11T05:23:24;30.87;;;18.73;;
15354;SDS011;7777;52.254;9.618;2022-12-11T05:25:54;31.13;;;18.63;;
15354;SDS011;7777;52.254;9.618;2022-12-11T05:28:26;32.03;;;19.63;;
15354;SDS011;7777;52.254;9.618;2022-12-11T05:33:30;32.13;;;20.10;;
15354;SDS011;7777;52.254;9.618;2022-12-11T05:35:56;32.17;;;19.10;;
15354;SDS011;7777;52.254;9.618;2022-12-11T05:38:22;31.10;;;19.10;;
15354;SDS011;7777;52.254;9.618;2022-12-11T05:40:58;28.53;;;18.37;;
15354;SDS011;7777;52.254;9.618;2022-12-11T05:43:28;29.50;;;17.93;;
15354;SDS011;7777;52.254;9.618;2022-12-11T05:45:55;32.23;;;18.73;;
15354;SDS011;7777;52.254;9.618;2022-12-11T05:48:32;30.63;;;18.63;;
15354;SDS011;7777;52.254;9.618;2022-12-11T05:51:00;30.40;;;19.97;;
15354;SDS011;7777;52.254;9.618;2022-12-11T05:53:27;30.10;;;18.90;;
15354;SDS011;7777;52.254;9.618;2022-12-11T05:55:53;31.03;;;18.97;;
15354;SDS011;7777;52.254;9.618;2022-12-11T05:58:19;32.17;;;19.87;;
15354;SDS011;7777;52.254;9.618;2022-12-11T06:00:46;29.93;;;18.90;;
15354;SDS011;7777;52.254;9.618;2022-12-11T06:03:12;33.87;;;21.00;;
15354;SDS011;7777;52.254;9.618;2022-12-11T06:05:38;28.50;;;19.10;;
15354;SDS011;7777;52.254;9.618;2022-12-11T06:08:05;31.57;;;19.50;;
15354;SDS011;7777;52.254;9.618;2022-12-11T06:10:32;30.60;;;18.73;;
15354;SDS011;7777;52.254;9.618;2022-12-11T06:12:58;36.30;;;20.10;;
15354;SDS011;7777;52.254;9.618;2022-12-11T06:15:23;32.10;;;20.50;;
15354;SDS011;7777;52.254;9.618;2022-12-11T06:17:49;30.53;;;19.00;;
15354;SDS011;7777;52.254;9.618;2022-12-11T06:20:15;32.77;;;20.57;;
15354;SDS011;7777;52.254;9.618;2022-12-11T06:22:41;30.50;;;19.17;;
15354;SDS011;7777;52.254;9.618;2022-12-11T06:25:06;34.30;;;20.07;;
15354;SDS011;7777;52.254;9.618;2022-12-11T06:27:33;30.00;;;19.60;;
15354;SDS011;7777;52.254;9.618;2022-12-11T06:29:59;29.50;;;18.63;;
15354;SDS011;7777;52.254;9.618;2022-12-11T06:32:25;30.33;;;19.40;;
15354;SDS011;7777;52.254;9.618;2022-12-11T06:34:51;31.03;;;19.73;;
15354;SDS011;7777;52.254;9.618;2022-12-11T06:37:17;32.67;;;18.93;;
15354;SDS011;7777;52.254;9.618;2022-12-11T06:39:42;31.13;;;19.33;;
15354;SDS011;7777;52.254;9.618;2022-12-11T06:42:08;32.77;;;19.67;;
15354;SDS011;7777;52.254;9.618;2022-12-11T06:44:34;33.43;;;21.10;;
15354;SDS011;7777;52.254;9.618;2022-12-11T06:47:00;35.37;;;20.57;;
15354;SDS011;7777;52.254;9.618;2022-12-11T06:49:25;35.63;;;20.33;;
15354;SDS011;7777;52.254;9.618;2022-12-11T06:51:51;34.50;;;20.63;;
15354;SDS011;7777;52.254;9.618;2022-12-11T06:54:17;34.93;;;20.90;;
15354;SDS011;7777;52.254;9.618;2022-12-11T06:56:43;33.30;;;20.13;;
15354;SDS011;7777;52.254;9.618;2022-12-11T06:59:14;33.60;;;21.23;;
15354;SDS011;7777;52.254;9.618;2022-12-11T07:02:14;35.97;;;21.20;;
15354;SDS011;7777;52.254;9.618;2022-12-11T07:05:27;36.40;;;20.70;;
15354;SDS011;7777;52.254;9.618;2022-12-11T07:08:22;33.80;;;19.70;;
15354;SDS011;7777;52.254;9.618;2022-12-11T07:10:48;31.83;;;19.87;;
15354;SDS011;7777;52.254;9.618;2022-12-11T07:13:13;30.30;;;19.47;;
15354;SDS011;7777;52.254;9.618;2022-12-11T07:15:39;27.30;;;18.40;;
15354;SDS011;7777;52.254;9.618;2022-12-11T07:18:05;30.60;;;20.17;;
15354;SDS011;7777;52.254;9.618;2022-12-11T07:20:30;35.30;;;20.73;;
15354;SDS011;7777;52.254;9.618;2022-12-11T07:22:56;33.83;;;20.63;;
15354;SDS011;7777;52.254;9.618;2022-12-11T07:25:22;31.00;;;19.47;;
15354;SDS011;7777;52.254;9.618;2022-12-11T07:27:47;31.90;;;20.43;;
15354;SDS011;7777;52.254;9.618;2022-12-11T07:30:13;34.73;;;20.93;;
15354;SDS011;7777;52.254;9.618;2022-12-11T07:32:39;29.27;;;18.97;;
15354;SDS011;7777;52.254;9.618;2022-12-11T07:35:05;33.80;;;21.03;;
15354;SDS011;7777;52.254;9.618;2022-12-11T07:37:31;34.07;;;20.40;;
15354;SDS011;7777;52.254;9.618;2022-12-11T07:39:57;32.00;;;19.07;;
15354;SDS011;7777;52.254;9.618;2022-12-11T07:42:22;32.47;;;19.13;;
15354;SDS011;7777;52.254;9.618;2022-12-11T07:44:48;34.93;;;20.57;;
15354;SDS011;7777;52.254;9.618;2022-12-11T07:47:14;33.53;;;19.13;;
15354;SDS011;7777;52.254;9.618;2022-12-11T07:49:39;35.17;;;20.47;;
15354;SDS011;7777;52.254;9.618;2022-12-11T07:52:05;33.57;;;19.00;;
15354;SDS011;7777;52.254;9.618;2022-12-11T07:54:31;32.20;;;20.83;;
15354;SDS011;7777;52.254;9.618;2022-12-11T07:56:57;33.43;;;19.60;;
15354;SDS011;7777;52.254;9.618;2022-12-11T07:59:22;31.43;;;19.53;;
15354;SDS011;7777;52.254;9.618;2022-12-11T08:01:48;29.93;;;19.50;;
15354;SDS011;7777;52.254;9.618;2022-12-11T08:04:14;34.67;;;20.37;;
15354;SDS011;7777;52.254;9.618;2022-12-11T08:06:40;26.57;;;16.97;;
15354;SDS011;7777;52.254;9.618;2022-12-11T08:09:07;31.43;;;18.77;;
15354;SDS011;7777;52.254;9.618;2022-12-11T08:11:36;30.97;;;19.10;;
15354;SDS011;7777;52.254;9.618;2022-12-11T08:14:02;31.53;;;18.90;;
15354;SDS011;7777;52.254;9.618;2022-12-11T08:16:30;27.73;;;17.57;;
15354;SDS011;7777;52.254;9.618;2022-12-11T08:18:56;27.07;;;16.67;;
15354;SDS011;7777;52.254;9.618;2022-12-11T08:21:23;29.03;;;17.80;;
15354;SDS011;7777;52.254;9.618;2022-12-11T08:23:51;27.80;;;17.20;;
15354;SDS011;7777;52.254;9.618;2022-12-11T08:26:19;30.87;;;19.77;;
15354;SDS011;7777;52.254;9.618;2022-12-11T08:28:47;30.97;;;18.30;;
15354;SDS011;7777;52.254;9.618;2022-12-11T08:31:13;29.50;;;19.10;;
15354;SDS011;7777;52.254;9.618;2022-12-11T08:33:41;28.77;;;17.13;;
15354;SDS011;7777;52.254;9.618;2022-12-11T08:36:10;28.37;;;17.63;;
15354;SDS011;7777;52.254;9.618;2022-12-11T08:38:39;31.30;;;18.57;;
15354;SDS011;7777;52.254;9.618;2022-12-11T08:41:12;29.93;;;18.13;;
15354;SDS011;7777;52.254;9.618;2022-12-11T08:43:46;36.00;;;19.97;;
15354;SDS011;7777;52.254;9.618;2022-12-11T08:46:12;30.43;;;19.20;;
15354;SDS011;7777;52.254;9.618;2022-12-11T08:48:40;30.53;;;18.47;;
15354;SDS011;7777;52.254;9.618;2022-12-11T08:51:08;30.13;;;18.43;;
15354;SDS011;7777;52.254;9.618;2022-12-11T08:53:38;33.97;;;20.33;;
15354;SDS011;7777;52.254;9.618;2022-12-11T08:56:14;28.20;;;17.80;;
15354;SDS011;7777;52.254;9.618;2022-12-11T08:58:42;33.13;;;19.37;;
15354;SDS011;7777;52.254;9.618;2022-12-11T09:01:10;33.73;;;19.30;;
15354;SDS011;7777;52.254;9.618;2022-12-11T09:03:41;30.97;;;19.63;;
15354;SDS011;7777;52.254;9.618;2022-12-11T09:06:09;29.67;;;19.37;;
15354;SDS011;7777;52.254;9.618;2022-12-11T09:08:38;31.70;;;19.33;;
15354;SDS011;7777;52.254;9.618;2022-12-11T09:11:08;29.73;;;18.77;;
15354;SDS011;7777;52.254;9.618;2022-12-11T09:13:40;35.50;;;20.47;;
15354;SDS011;7777;52.254;9.618;2022-12-11T09:16:07;30.83;;;19.17;;
15354;SDS011;7777;52.254;9.618;2022-12-11T09:18:37;32.40;;;19.50;;
15354;SDS011;7777;52.254;9.618;2022-12-11T09:21:04;28.03;;;18.20;;
15354;SDS011;7777;52.254;9.618;2022-12-11T09:23:36;30.70;;;19.70;;
15354;SDS011;7777;52.254;9.618;2022-12-11T09:26:03;31.40;;;19.47;;
15354;SDS011;7777;52.254;9.618;2022-12-11T09:28:38;29.53;;;18.53;;
15354;SDS011;7777;52.254;9.618;2022-12-11T09:31:08;29.27;;;18.23;;
15354;SDS011;7777;52.254;9.618;2022-12-11T09:33:40;28.83;;;17.77;;
15354;SDS011;7777;52.254;9.618;2022-12-11T09:36:06;28.07;;;17.87;;
15354;SDS011;7777;52.254;9.618;2022-12-11T09:38:32;30.27;;;19.27;;
15354;SDS011;7777;52.254;9.618;2022-12-11T09:41:00;29.77;;;18.40;;
15354;SDS011;7777;52.254;9.618;2022-12-11T09:46:02;29.97;;;18.57;;
15354;SDS011;7777;52.254;9.618;2022-12-11T09:48:35;29.67;;;19.63;;
15354;SDS011;7777;52.254;9.618;2022-12-11T09:51:04;30.57;;;18.23;;
15354;SDS011;7777;52.254;9.618;2022-12-11T09:53:43;34.00;;;20.10;;
15354;SDS011;7777;52.254;9.618;2022-12-11T10:01:54;26.47;;;17.10;;
15354;SDS011;7777;52.254;9.618;2022-12-11T10:04:49;31.03;;;19.13;;
15354;SDS011;7777;52.254;9.618;2022-12-11T10:07:44;28.33;;;17.77;;
15354;SDS011;7777;52.254;9.618;2022-12-11T10:10:31;30.23;;;19.20;;
15354;SDS011;7777;52.254;9.618;2022-12-11T10:13:22;29.20;;;18.47;;
15354;SDS011;7777;52.254;9.618;2022-12-11T10:16:35;30.03;;;19.70;;
15354;SDS011;7777;52.254;9.618;2022-12-11T10:21:54;29.57;;;18.57;;
15354;SDS011;7777;52.254;9.618;2022-12-11T10:27:19;28.07;;;18.93;;
15354;SDS011;7777;52.254;9.618;2022-12-11T10:35:30;33.53;;;19.60;;
15354;SDS011;7777;52.254;9.618;2022-12-11T10:38:11;30.77;;;19.17;;
15354;SDS011;7777;52.254;9.618;2022-12-11T10:40:38;31.53;;;19.50;;
15354;SDS011;7777;52.254;9.618;2022-12-11T10:43:10;31.07;;;19.17;;
15354;SDS011;7777;52.254;9.618;2022-12-11T10:45:36;28.57;;;18.90;;
15354;SDS011;7777;52.254;9.618;2022-12-11T10:48:03;30.30;;;18.87;;
15354;SDS011;7777;52.254;9.618;2022-12-11T10:50:33;30.73;;;18.97;;
15354;SDS011;7777;52.254;9.618;2022-12-11T10:52:59;32.00;;;19.90;;
15354;SDS011;7777;52.254;9.618;2022-12-11T10:55:47;31.47;;;19.43;;
15354;SDS011;7777;52.254;9.618;2022-12-11T10:58:20;33.80;;;21.17;;
15354;SDS011;7777;52.254;9.618;2022-12-11T11:03:31;32.23;;;20.57;;
15354;SDS011;7777;52.254;9.618;2022-12-11T11:08:42;32.60;;;18.87;;
15354;SDS011;7777;52.254;9.618;2022-12-11T11:14:13;31.63;;;19.10;;
15354;SDS011;7777;52.254;9.618;2022-12-11T11:16:45;34.33;;;19.27;;
15354;SDS011;7777;52.254;9.618;2022-12-11T11:19:24;34.43;;;21.00;;
15354;SDS011;7777;52.254;9.618;2022-12-11T11:21:56;32.87;;;19.87;;
15354;SDS011;7777;52.254;9.618;2022-12-11T11:24:37;33.07;;;19.70;;
15354;SDS011;7777;52.254;9.618;2022-12-11T11:27:20;32.03;;;19.80;;
15354;SDS011;7777;52.254;9.618;2022-12-11T11:29:53;31.97;;;19.03;;
15354;SDS011;7777;52.254;9.618;2022-12-11T11:37:35;40.70;;;23.67;;
15354;SDS011;7777;52.254;9.618;2022-12-11T11:45:24;35.63;;;22.10;;
15354;SDS011;7777;52.254;9.618;2022-12-11T11:48:04;34.23;;;22.13;;
15354;SDS011;7777;52.254;9.618;2022-12-11T11:51:18;32.93;;;20.10;;
15354;SDS011;7777;52.254;9.618;2022-12-11T11:53:55;31.67;;;19.77;;
15354;SDS011;7777;52.254;9.618;2022-12-11T11:56:25;32.07;;;20.77;;
15354;SDS011;7777;52.254;9.618;2022-12-11T12:02:12;32.83;;;20.53;;
15354;SDS011;7777;52.254;9.618;2022-12-11T12:04:40;32.00;;;19.80;;
15354;SDS011;7777;52.254;9.618;2022-12-11T12:26:40;32.70;;;20.03;;
15354;SDS011;7777;52.254;9.618;2022-12-11T12:29:32;37.77;;;22.80;;
15354;SDS011;7777;52.254;9.618;2022-12-11T12:32:23;34.60;;;22.27;;
15354;SDS011;7777;52.254;9.618;2022-12-11T12:35:05;34.10;;;22.30;;
15354;SDS011;7777;52.254;9.618;2022-12-11T12:38:18;34.83;;;21.80;;
15354;SDS011;7777;52.254;9.618;2022-12-11T12:41:35;41.27;;;24.77;;
15354;SDS011;7777;52.254;9.618;2022-12-11T12:44:22;41.33;;;25.30;;
15354;SDS011;7777;52.254;9.618;2022-12-11T12:46:51;39.83;;;23.00;;
15354;SDS011;7777;52.254;9.618;2022-12-11T12:49:33;38.20;;;22.83;;
15354;SDS011;7777;52.254;9.618;2022-12-11T12:52:10;42.23;;;25.17;;
15354;SDS011;7777;52.254;9.618;2022-12-11T12:54:51;39.60;;;25.03;;
15354;SDS011;7777;52.254;9.618;2022-12-11T12:57:40;35.10;;;22.90;;
15354;SDS011;7777;52.254;9.618;2022-12-11T13:03:19;36.70;;;22.53;;
15354;SDS011;7777;52.254;9.618;2022-12-11T13:06:04;37.17;;;23.73;;
15354;SDS011;7777;52.254;9.618;2022-12-11T13:08:41;36.10;;;23.10;;
15354;SDS011;7777;52.254;9.618;2022-12-11T13:11:14;36.37;;;22.63;;
15354;SDS011;7777;52.254;9.618;2022-12-11T13:13:43;37.13;;;23.07;;
15354;SDS011;7777;52.254;9.618;2022-12-11T13:18:40;34.77;;;21.53;;
15354;SDS011;7777;52.254;9.618;2022-12-11T13:21:43;37.53;;;23.27;;
15354;SDS011;7777;52.254;9.618;2022-12-11T13:26:46;35.10;;;21.60;;
15354;SDS011;7777;52.254;9.618;2022-12-11T13:29:33;37.27;;;23.33;;
15354;SDS011;7777;52.254;9.618;2022-12-11T13:34:34;35.03;;;22.10;;
15354;SDS011;7777;52.254;9.618;2022-12-11T13:37:03;39.00;;;23.57;;
15354;SDS011;7777;52.254;9.618;2022-12-11T13:39:33;38.17;;;23.90;;
15354;SDS011;7777;52.254;9.618;2022-12-11T13:42:05;39.07;;;24.37;;
15354;SDS011;7777;52.254;9.618;2022-12-11T13:44:47;39.17;;;24.00;;
15354;SDS011;7777;52.254;9.618;2022-12-11T13:47:14;35.87;;;23.97;;
15354;SDS011;7777;52.254;9.618;2022-12-11T13:49:43;38.73;;;23.73;;
15354;SDS011;7777;52.254;9.618;2022-12-11T13:52:22;42.43;;;25.53;;
15354;SDS011;7777;52.254;9.618;2022-12-11T13:54:52;38.17;;;24.70;;
15354;SDS011;7777;52.254;9.618;2022-12-11T13:57:23;36.57;;;22.73;;
15354;SDS011;7777;52.254;9.618;2022-12-11T13:59:53;40.87;;;24.07;;
15354;SDS011;7777;52.254;9.618;2022-12-11T14:04:51;40.63;;;25.30;;
15354;SDS011;7777;52.254;9.618;2022-12-11T14:07:27;41.07;;;25.23;;
15354;SDS011;7777;52.254;9.618;2022-12-11T14:10:17;44.87;;;27.30;;
15354;SDS011;7777;52.254;9.618;2022-12-11T14:13:12;45.20;;;27.43;;
15354;SDS011;7777;52.254;9.618;2022-12-11T14:15:46;37.93;;;23.03;;
15354;SDS011;7777;52.254;9.618;2022-12-11T14:18:13;41.20;;;24.67;;
15354;SDS011;7777;52.254;9.618;2022-12-11T14:20:51;39.83;;;25.10;;
15354;SDS011;7777;52.254;9.618;2022-12-11T14:23:24;42.70;;;25.53;;
15354;SDS011;7777;52.254;9.618;2022-12-11T14:25:57;40.10;;;25.03;;
15354;SDS011;7777;52.254;9.618;2022-12-11T14:28:28;42.00;;;25.30;;
15354;SDS011;7777;52.254;9.618;2022-12-11T14:31:01;36.17;;;23.93;;
15354;SDS011;7777;52.254;9.618;2022-12-11T14:33:34;38.63;;;24.87;;
15354;SDS011;7777;52.254;9.618;2022-12-11T14:36:06;43.70;;;26.00;;
15354;SDS011;7777;52.254;9.618;2022-12-11T14:38:34;41.87;;;26.40;;
15354;SDS011;7777;52.254;9.618;2022-12-11T14:41:12;46.20;;;26.93;;
15354;SDS011;7777;52.254;9.618;2022-12-11T14:43:49;40.63;;;23.83;;
15354;SDS011;7777;52.254;9.618;2022-12-11T14:46:23;44.07;;;25.53;;
15354;SDS011;7777;52.254;9.618;2022-12-11T14:49:01;38.47;;;23.33;;
15354;SDS011;7777;52.254;9.618;2022-12-11T14:51:37;37.73;;;23.53;;
15354;SDS011;7777;52.254;9.618;2022-12-11T14:54:05;38.53;;;23.77;;
15354;SDS011;7777;52.254;9.618;2022-12-11T14:56:42;40.03;;;23.23;;
15354;SDS011;7777;52.254;9.618;2022-12-11T14:59:15;40.00;;;25.40;;
15354;SDS011;7777;52.254;9.618;2022-12-11T15:01:55;38.60;;;23.77;;
15354;SDS011;7777;52.254;9.618;2022-12-11T15:04:29;37.60;;;22.27;;
15354;SDS011;7777;52.254;9.618;2022-12-11T15:06:57;41.40;;;24.50;;
15354;SDS011;7777;52.254;9.618;2022-12-11T15:11:55;47.07;;;27.33;;
15354;SDS011;7777;52.254;9.618;2022-12-11T15:14:25;48.17;;;28.33;;
15354;SDS011;7777;52.254;9.618;2022-12-11T15:16:52;44.40;;;25.60;;
15354;SDS011;7777;52.254;9.618;2022-12-11T15:19:21;42.87;;;24.73;;
15354;SDS011;7777;52.254;9.618;2022-12-11T15:22:02;39.27;;;23.73;;
15354;SDS011;7777;52.254;9.618;2022-12-11T15:24:41;40.73;;;24.97;;
15354;SDS011;7777;52.254;9.618;2022-12-11T15:32:45;40.23;;;24.93;;
15354;SDS011;7777;52.254;9.618;2022-12-11T15:35:26;34.60;;;21.93;;
15354;SDS011;7777;52.254;9.618;2022-12-11T15:37:53;39.40;;;24.20;;
15354;SDS011;7777;52.254;9.618;2022-12-11T15:40:21;39.70;;;24.53;;
15354;SDS011;7777;52.254;9.618;2022-12-11T15:42:47;39.30;;;24.73;;
15354;SDS011;7777;52.254;9.618;2022-12-11T15:45:15;38.90;;;23.73;;
15354;SDS011;7777;52.254;9.618;2022-12-11T15:47:46;49.93;;;29.73;;
15354;SDS011;7777;52.254;9.618;2022-12-11T15:50:22;42.57;;;26.13;;
15354;SDS011;7777;52.254;9.618;2022-12-11T15:52:51;43.77;;;26.87;;
15354;SDS011;7777;52.254;9.618;2022-12-11T15:55:18;39.97;;;25.23;;
15354;SDS011;7777;52.254;9.618;2022-12-11T16:00:19;40.23;;;23.83;;
15354;SDS011;7777;52.254;9.618;2022-12-11T16:02:45;40.53;;;23.77;;
15354;SDS011;7777;52.254;9.618;2022-12-11T16:05:12;42.00;;;25.23;;
15354;SDS011;7777;52.254;9.618;2022-12-11T16:07:38;41.17;;;24.17;;
15354;SDS011;7777;52.254;9.618;2022-12-11T16:10:05;38.77;;;23.93;;
15354;SDS011;7777;52.254;9.618;2022-12-11T16:12:32;46.27;;;26.63;;
15354;SDS011;7777;52.254;9.618;2022-12-11T16:17:30;44.07;;;23.77;;
15354;SDS011;7777;52.254;9.618;2022-12-11T16:22:33;44.97;;;27.87;;
15354;SDS011;7777;52.254;9.618;2022-12-11T16:25:02;48.03;;;28.17;;
15354;SDS011;7777;52.254;9.618;2022-12-11T16:27:29;40.83;;;24.80;;
15354;SDS011;7777;52.254;9.618;2022-12-11T16:29:57;38.23;;;23.53;;
15354;SDS011;7777;52.254;9.618;2022-12-11T16:32:23;46.87;;;24.97;;
15354;SDS011;7777;52.254;9.618;2022-12-11T16:34:57;45.30;;;24.43;;
15354;SDS011;7777;52.254;9.618;2022-12-11T16:37:25;41.00;;;24.03;;
15354;SDS011;7777;52.254;9.618;2022-12-11T16:39:51;38.17;;;21.97;;
15354;SDS011;7777;52.254;9.618;2022-12-11T16:42:17;43.13;;;23.47;;
15354;SDS011;7777;52.254;9.618;2022-12-11T16:44:43;38.67;;;21.73;;
15354;SDS011;7777;52.254;9.618;2022-12-11T16:47:08;41.20;;;23.57;;
15354;SDS011;7777;52.254;9.618;2022-12-11T16:49:34;42.37;;;25.67;;
15354;SDS011;7777;52.254;9.618;2022-12-11T16:52:00;42.57;;;24.20;;